Time;durP1;ratioP1;P1;durP2;ratioP2;P2;SDS_P1;SDS_P2;PMS_P1;PMS_P2;Temp;Humidity;BMP_temperature;BMP_pressure;BME280_temperature;BME280_humidity;BME280_pressure;Samples;Min_cycle;Max_cycle;Signal;HPM_P1;HPM_P2
2021/10/16 00:00:59;;;;;;;20.23;7.63;;;7.10;90.20;;;;;;5033352;28;20021;-80
2021/10/16 00:03:25;;;;;;;19.65;7.65;;;7.10;90.20;;;;;;5033191;28;20033;-80
2021/10/16 00:05:51;;;;;;;21.42;7.82;;;7.10;90.20;;;;;;4999430;28;20029;-80
2021/10/16 00:08:16;;;;;;;20.98;7.28;;;7.00;90.20;;;;;;5033033;28;20025;-80
2021/10/16 00:10:42;;;;;;;21.35;6.90;;;7.00;90.20;;;;;;5033398;28;20034;-79
2021/10/16 00:13:08;;;;;;;16.48;6.45;;;7.00;90.10;;;;;;5033497;28;20028;-79
2021/10/16 00:15:33;;;;;;;17.75;6.47;;;6.90;90.10;;;;;;5018201;28;20033;-80
2021/10/16 00:17:59;;;;;;;24.73;6.68;;;7.00;90.20;;;;;;5018208;28;20116;-80
2021/10/16 00:20:25;;;;;;;17.67;6.65;;;6.90;90.10;;;;;;5052555;28;20374;-80
2021/10/16 00:22:51;;;;;;;16.83;6.18;;;6.90;90.10;;;;;;5015220;28;20401;-79
2021/10/16 00:25:16;;;;;;;16.20;5.85;;;6.90;90.00;;;;;;5026883;28;20086;-79
2021/10/16 00:27:42;;;;;;;19.83;6.15;;;6.80;90.00;;;;;;5032780;28;20045;-79
2021/10/16 00:30:08;;;;;;;15.65;5.53;;;6.80;90.00;;;;;;5032760;28;20116;-79
2021/10/16 00:32:34;;;;;;;17.58;6.03;;;6.80;90.00;;;;;;5014932;28;20033;-79
2021/10/16 00:35:00;;;;;;;13.55;4.63;;;6.80;90.00;;;;;;5015051;28;20052;-79
2021/10/16 00:37:26;;;;;;;20.23;5.25;;;6.80;90.10;;;;;;5014542;28;20045;-79
2021/10/16 00:39:54;;;;;;;17.70;5.40;;;6.80;90.10;;;;;;5032374;28;20022;-79
2021/10/16 00:42:20;;;;;;;18.48;6.75;;;6.70;90.10;;;;;;5014706;28;20086;-79
2021/10/16 00:44:46;;;;;;;17.40;5.30;;;6.70;90.50;;;;;;5014137;28;20481;-79
2021/10/16 00:47:11;;;;;;;14.45;5.35;;;6.70;90.20;;;;;;5032103;28;20799;-79
2021/10/16 00:49:37;;;;;;;17.58;4.97;;;6.70;90.20;;;;;;5045775;28;20058;-79
2021/10/16 00:52:03;;;;;;;23.48;5.22;;;6.70;90.20;;;;;;5026969;28;20033;-79
2021/10/16 00:54:30;;;;;;;18.00;5.15;;;6.70;90.20;;;;;;5042531;28;20063;-79
2021/10/16 00:56:59;;;;;;;15.68;5.10;;;6.60;90.20;;;;;;5017020;28;20427;-79
2021/10/16 00:59:25;;;;;;;12.73;5.22;;;6.60;90.20;;;;;;5014565;28;20112;-79
2021/10/16 01:01:50;;;;;;;17.40;5.07;;;6.60;90.20;;;;;;5029023;28;20041;-79
2021/10/16 01:04:17;;;;;;;13.88;5.18;;;6.60;90.20;;;;;;5016667;28;20067;-79
2021/10/16 01:06:43;;;;;;;13.18;5.07;;;6.60;90.20;;;;;;5030988;28;20033;-80
2021/10/16 01:09:09;;;;;;;16.00;5.07;;;6.60;90.30;;;;;;5036662;28;20025;-79
2021/10/16 01:11:40;;;;;;;17.67;4.93;;;6.50;90.30;;;;;;5013687;28;20040;-79
2021/10/16 01:14:10;;;;;;;12.45;4.38;;;6.60;90.30;;;;;;5014869;28;20034;-80
2021/10/16 01:16:37;;;;;;;12.55;5.13;;;6.50;90.30;;;;;;5031532;28;20029;-79
2021/10/16 01:19:09;;;;;;;12.68;5.10;;;6.50;90.20;;;;;;5014132;28;20105;-79
2021/10/16 01:21:39;;;;;;;15.57;5.68;;;6.50;90.20;;;;;;5031749;28;20028;-79
2021/10/16 01:24:07;;;;;;;12.95;4.85;;;6.50;90.10;;;;;;5042506;28;20029;-79
2021/10/16 01:26:34;;;;;;;12.07;5.13;;;6.40;90.10;;;;;;5051780;28;20025;-79
2021/10/16 01:29:00;;;;;;;12.68;4.15;;;6.40;90.00;;;;;;5029846;28;20055;-79
2021/10/16 01:31:26;;;;;;;12.38;4.15;;;6.30;90.00;;;;;;5051685;28;20421;-79
2021/10/16 01:33:53;;;;;;;14.02;3.83;;;6.30;90.00;;;;;;5036186;28;20570;-79
2021/10/16 01:36:19;;;;;;;15.13;4.15;;;6.30;90.00;;;;;;5013604;28;20045;-79
2021/10/16 01:38:45;;;;;;;13.93;3.90;;;6.20;90.00;;;;;;5013633;28;20021;-79
2021/10/16 01:41:10;;;;;;;13.05;4.30;;;6.20;90.00;;;;;;5031558;28;20032;-79
2021/10/16 01:43:36;;;;;;;9.13;3.47;;;6.20;90.10;;;;;;5013787;28;20026;-79
2021/10/16 01:46:02;;;;;;;9.93;3.53;;;6.10;90.10;;;;;;5031616;28;20034;-79
2021/10/16 01:48:28;;;;;;;14.60;3.83;;;6.10;90.10;;;;;;5013840;28;20029;-79
2021/10/16 01:50:54;;;;;;;12.60;3.83;;;6.10;90.10;;;;;;5013479;28;20069;-79
2021/10/16 01:53:21;;;;;;;14.07;4.53;;;6.10;90.10;;;;;;5031010;28;20485;-79
2021/10/16 01:55:47;;;;;;;11.40;4.50;;;6.10;90.10;;;;;;5031138;28;20510;-79
2021/10/16 01:58:15;;;;;;;17.25;4.10;;;6.10;90.20;;;;;;5031223;28;20022;-79
2021/10/16 02:00:44;;;;;;;11.83;3.67;;;6.00;90.20;;;;;;5031091;28;20018;-79
2021/10/16 02:03:11;;;;;;;9.43;3.83;;;6.00;90.30;;;;;;5041479;28;20025;-79
2021/10/16 02:05:44;;;;;;;16.73;3.92;;;6.10;90.40;;;;;;5030216;28;20487;-79
2021/10/16 02:08:11;;;;;;;12.23;3.95;;;6.00;90.60;;;;;;5030507;28;20075;-79
2021/10/16 02:10:38;;;;;;;15.85;4.30;;;6.00;90.30;;;;;;5030766;28;20021;-79
2021/10/16 02:13:04;;;;;;;16.58;4.55;;;6.00;90.30;;;;;;5011656;28;20038;-79
2021/10/16 02:15:30;;;;;;;9.93;4.03;;;5.90;90.40;;;;;;5012856;28;20029;-79
2021/10/16 02:17:55;;;;;;;12.57;3.85;;;5.90;90.40;;;;;;5012887;28;20359;-79
2021/10/16 02:20:21;;;;;;;9.93;4.38;;;5.90;90.40;;;;;;5016316;28;20040;-79
2021/10/16 02:22:46;;;;;;;14.90;4.15;;;5.90;90.30;;;;;;5039038;28;20022;-79
2021/10/16 02:25:12;;;;;;;15.63;4.13;;;5.90;90.40;;;;;;5047169;28;20033;-79
2021/10/16 02:27:38;;;;;;;14.02;3.95;;;5.90;90.40;;;;;;5032578;28;20085;-79
2021/10/16 02:30:04;;;;;;;14.30;4.45;;;5.90;90.40;;;;;;5032967;28;20553;-79
2021/10/16 02:32:29;;;;;;;11.50;4.18;;;5.90;90.40;;;;;;5032012;28;20033;-79
2021/10/16 02:34:55;;;;;;;14.55;4.18;;;5.90;90.40;;;;;;5043726;28;20081;-79
2021/10/16 02:37:21;;;;;;;15.50;4.13;;;5.90;90.40;;;;;;5035760;28;20090;-79
2021/10/16 02:39:46;;;;;;;10.45;4.13;;;5.80;90.40;;;;;;5012548;28;20030;-79
2021/10/16 02:42:12;;;;;;;10.15;3.72;;;5.90;90.40;;;;;;5012987;28;20033;-79
2021/10/16 02:44:38;;;;;;;12.43;5.07;;;5.80;90.40;;;;;;5049491;28;20477;-79
2021/10/16 02:47:04;;;;;;;12.25;4.68;;;5.80;90.40;;;;;;5050071;28;20517;-79
2021/10/16 02:49:30;;;;;;;13.98;4.50;;;5.80;90.40;;;;;;5031720;28;20033;-79
2021/10/16 02:51:55;;;;;;;13.73;4.82;;;5.80;90.50;;;;;;5012256;28;20033;-79
2021/10/16 02:54:21;;;;;;;11.63;4.53;;;5.80;90.50;;;;;;5012255;28;20117;-79
2021/10/16 02:56:47;;;;;;;12.07;4.07;;;5.80;90.50;;;;;;5029968;28;20033;-79
2021/10/16 02:59:13;;;;;;;11.63;4.32;;;5.80;90.50;;;;;;5026360;28;20069;-79
2021/10/16 03:01:39;;;;;;;11.98;4.25;;;5.80;90.50;;;;;;5029252;28;20033;-79
2021/10/16 03:04:05;;;;;;;14.68;4.22;;;5.70;90.40;;;;;;5032327;28;20682;-79
2021/10/16 03:06:30;;;;;;;11.70;4.07;;;5.70;90.40;;;;;;5049922;28;20062;-79
2021/10/16 03:08:56;;;;;;;19.75;3.95;;;5.70;90.40;;;;;;5015564;28;20029;-79
2021/10/16 03:11:21;;;;;;;13.98;4.28;;;5.70;90.30;;;;;;5049747;28;20040;-79
2021/10/16 03:13:47;;;;;;;16.33;4.40;;;5.60;90.30;;;;;;5043787;28;20033;-79
2021/10/16 03:16:13;;;;;;;12.60;4.38;;;5.60;90.30;;;;;;5029645;28;20043;-79
2021/10/16 03:18:39;;;;;;;13.32;3.92;;;5.50;90.30;;;;;;5038580;28;20017;-79
2021/10/16 03:21:05;;;;;;;11.60;4.22;;;5.50;90.30;;;;;;5028863;28;20033;-79
2021/10/16 03:23:30;;;;;;;15.60;4.90;;;5.50;90.40;;;;;;5031061;28;20385;-79
2021/10/16 03:25:56;;;;;;;11.73;4.32;;;5.50;90.30;;;;;;5020284;28;20632;-79
2021/10/16 03:28:21;;;;;;;14.18;4.85;;;5.50;90.30;;;;;;5028275;28;20359;-79
2021/10/16 03:30:47;;;;;;;11.43;4.35;;;5.50;90.30;;;;;;5035115;28;20367;-79
2021/10/16 03:33:14;;;;;;;11.20;3.95;;;5.40;90.30;;;;;;5029635;28;20432;-79
2021/10/16 03:35:41;;;;;;;12.45;4.22;;;5.40;90.40;;;;;;5011686;28;20032;-79
2021/10/16 03:38:06;;;;;;;18.48;4.32;;;5.40;90.40;;;;;;5029136;28;20061;-79
2021/10/16 03:40:32;;;;;;;14.35;4.53;;;5.40;90.40;;;;;;5011696;28;20022;-79
2021/10/16 03:42:58;;;;;;;10.45;4.22;;;5.40;90.30;;;;;;5011622;28;20482;-79
2021/10/16 03:45:23;;;;;;;17.30;4.63;;;5.30;90.30;;;;;;5044654;28;20108;-79
2021/10/16 03:47:49;;;;;;;14.90;5.55;;;5.30;90.30;;;;;;5049258;28;20045;-79
2021/10/16 03:50:15;;;;;;;13.75;4.75;;;5.40;90.30;;;;;;5031367;28;20029;-79
2021/10/16 03:52:40;;;;;;;13.18;4.95;;;5.30;90.30;;;;;;5031626;28;20493;-79
2021/10/16 03:55:07;;;;;;;12.63;5.03;;;5.30;90.30;;;;;;4996970;28;20044;-79
2021/10/16 03:57:33;;;;;;;9.77;4.28;;;5.30;90.40;;;;;;5011772;28;20063;-79
2021/10/16 03:59:59;;;;;;;12.35;4.82;;;5.30;90.50;;;;;;5028536;28;20048;-79
2021/10/16 04:02:26;;;;;;;14.20;4.45;;;5.30;90.50;;;;;;5021359;28;20029;-79
2021/10/16 04:04:52;;;;;;;13.55;4.47;;;5.30;90.50;;;;;;5047165;28;20021;-79
2021/10/16 04:07:18;;;;;;;10.35;4.10;;;5.30;90.50;;;;;;5010210;28;20041;-79
2021/10/16 04:09:44;;;;;;;11.38;4.00;;;5.30;90.40;;;;;;5031791;28;20547;-79
2021/10/16 04:12:09;;;;;;;11.35;3.70;;;5.30;90.40;;;;;;5010486;28;20067;-79
2021/10/16 04:14:35;;;;;;;14.80;4.57;;;5.30;90.40;;;;;;5028069;28;20030;-79
2021/10/16 04:17:01;;;;;;;14.32;5.50;;;5.30;90.40;;;;;;5028344;28;20744;-79
2021/10/16 04:19:27;;;;;;;17.15;5.75;;;5.30;90.50;;;;;;5011313;28;20033;-79
2021/10/16 04:21:53;;;;;;;13.57;5.30;;;5.30;90.60;;;;;;5011143;28;20542;-79
2021/10/16 04:24:19;;;;;;;10.77;5.20;;;5.30;90.60;;;;;;5040444;28;20022;-79
2021/10/16 04:26:45;;;;;;;14.68;5.35;;;5.20;90.50;;;;;;5028991;28;20029;-79
2021/10/16 04:29:11;;;;;;;11.40;5.07;;;5.20;90.50;;;;;;5028631;28;20074;-79
2021/10/16 04:31:36;;;;;;;13.07;4.90;;;5.20;90.60;;;;;;5028896;28;20108;-79
2021/10/16 04:34:04;;;;;;;17.63;5.03;;;5.20;90.60;;;;;;5039751;28;20037;-79
2021/10/16 04:36:31;;;;;;;12.73;4.38;;;5.20;90.60;;;;;;5031970;28;20040;-79
2021/10/16 04:38:57;;;;;;;9.20;4.38;;;5.20;90.60;;;;;;5022072;28;20025;-79
2021/10/16 04:41:23;;;;;;;12.77;4.43;;;5.20;90.60;;;;;;5032000;28;20034;-79
2021/10/16 04:43:48;;;;;;;10.45;4.45;;;5.20;90.60;;;;;;5017775;28;20038;-79
2021/10/16 04:46:14;;;;;;;11.90;5.00;;;5.20;90.70;;;;;;4997958;28;20029;-79
2021/10/16 04:48:44;;;;;;;10.90;4.70;;;5.20;90.70;;;;;;5031991;28;20026;-79
2021/10/16 04:51:11;;;;;;;10.43;4.38;;;5.20;90.60;;;;;;5031999;28;20039;-79
2021/10/16 04:53:37;;;;;;;11.45;4.47;;;5.10;90.60;;;;;;5027808;28;20045;-79
2021/10/16 04:56:03;;;;;;;13.23;5.63;;;5.10;90.90;;;;;;5039216;28;20128;-79
2021/10/16 04:58:28;;;;;;;15.45;5.13;;;5.10;90.60;;;;;;5014005;28;20041;-79
2021/10/16 05:00:54;;;;;;;12.02;4.82;;;5.10;90.60;;;;;;4997871;28;20057;-79
2021/10/16 05:03:20;;;;;;;11.02;4.90;;;5.10;90.60;;;;;;5031814;28;20089;-79
2021/10/16 05:05:45;;;;;;;7.35;4.43;;;5.00;90.70;;;;;;5032054;28;20385;-79
2021/10/16 05:08:11;;;;;;;12.80;4.68;;;5.00;90.70;;;;;;5025242;28;20488;-79
2021/10/16 05:10:37;;;;;;;10.70;4.28;;;5.00;90.70;;;;;;5051906;28;20484;-79
2021/10/16 05:13:03;;;;;;;13.35;4.80;;;5.00;90.70;;;;;;5048722;27;20021;-79
2021/10/16 05:15:28;;;;;;;16.02;4.40;;;5.00;90.60;;;;;;5017550;28;20132;-79
2021/10/16 05:17:54;;;;;;;10.68;4.20;;;5.00;90.70;;;;;;5031446;28;20502;-79
2021/10/16 05:20:20;;;;;;;11.43;4.88;;;4.90;90.60;;;;;;5031662;28;20032;-79
2021/10/16 05:22:47;;;;;;;9.40;4.18;;;4.90;90.60;;;;;;5037364;28;20021;-79
2021/10/16 05:25:13;;;;;;;10.15;4.78;;;4.90;90.60;;;;;;5051563;28;20109;-79
2021/10/16 05:27:39;;;;;;;9.27;4.70;;;4.90;90.60;;;;;;5023970;28;20071;-79
2021/10/16 05:30:06;;;;;;;17.48;4.88;;;4.90;90.60;;;;;;5040322;28;20041;-79
2021/10/16 05:32:32;;;;;;;14.30;5.10;;;4.80;90.60;;;;;;4998306;28;20108;-79
2021/10/16 05:34:57;;;;;;;13.88;5.32;;;4.80;90.60;;;;;;5031531;28;20108;-79
2021/10/16 05:37:23;;;;;;;15.45;5.53;;;4.80;90.60;;;;;;5031389;28;20057;-79
2021/10/16 05:39:49;;;;;;;12.93;4.63;;;4.70;90.60;;;;;;5039426;28;20549;-79
2021/10/16 05:42:15;;;;;;;12.68;4.40;;;4.70;90.60;;;;;;5046420;28;20053;-79
2021/10/16 05:44:40;;;;;;;15.00;4.90;;;4.70;90.60;;;;;;5033201;28;20021;-79
2021/10/16 05:47:06;;;;;;;11.25;4.75;;;4.70;90.60;;;;;;5000429;28;20078;-79
2021/10/16 05:49:32;;;;;;;11.98;4.60;;;4.70;90.60;;;;;;5022991;28;20723;-79
2021/10/16 05:51:58;;;;;;;10.63;4.50;;;4.70;90.60;;;;;;5030925;28;20029;-80
2021/10/16 05:54:24;;;;;;;13.52;5.13;;;4.70;90.60;;;;;;5029228;28;20029;-75
2021/10/16 05:56:49;;;;;;;8.45;4.43;;;4.70;90.80;;;;;;5044646;28;20516;-75
2021/10/16 05:59:15;;;;;;;13.73;4.53;;;4.70;90.60;;;;;;5040382;28;20044;-75
2021/10/16 06:01:41;;;;;;;14.60;4.63;;;4.70;90.60;;;;;;5040313;28;20030;-75
2021/10/16 06:04:06;;;;;;;13.70;4.93;;;4.70;90.60;;;;;;5020605;28;20034;-76
2021/10/16 06:06:32;;;;;;;11.15;4.72;;;4.60;90.50;;;;;;5027833;28;20541;-75
2021/10/16 06:08:57;;;;;;;17.13;4.57;;;4.60;90.50;;;;;;5010105;28;20044;-75
2021/10/16 06:11:23;;;;;;;12.43;5.15;;;4.60;90.50;;;;;;5013481;28;20061;-75
2021/10/16 06:13:49;;;;;;;14.65;5.30;;;4.60;90.60;;;;;;5028146;28;20577;-75
2021/10/16 06:16:14;;;;;;;13.95;5.03;;;4.60;90.60;;;;;;5006291;28;20803;-75
2021/10/16 06:18:41;;;;;;;12.18;4.70;;;4.60;90.60;;;;;;5032096;28;20034;-75
2021/10/16 06:21:06;;;;;;;9.90;4.38;;;4.60;90.70;;;;;;4995967;28;20064;-75
2021/10/16 06:23:32;;;;;;;14.00;4.38;;;4.60;90.70;;;;;;5004402;28;20068;-75
2021/10/16 06:25:58;;;;;;;10.52;4.53;;;4.60;90.80;;;;;;5029247;28;20036;-75
2021/10/16 06:28:24;;;;;;;13.05;4.80;;;4.70;90.80;;;;;;5035140;27;20569;-75
2021/10/16 06:30:49;;;;;;;13.88;4.90;;;4.70;90.80;;;;;;5016184;28;20038;-75
2021/10/16 06:33:15;;;;;;;11.75;5.00;;;4.80;90.90;;;;;;5011356;28;20037;-75
2021/10/16 06:35:44;;;;;;;10.82;4.75;;;4.80;90.90;;;;;;5024991;28;20489;-75
2021/10/16 06:38:09;;;;;;;8.35;4.30;;;4.90;90.90;;;;;;5023376;28;20540;-75
2021/10/16 06:40:35;;;;;;;9.23;4.47;;;4.90;90.90;;;;;;5029186;28;20101;-76
2021/10/16 06:43:01;;;;;;;11.15;4.38;;;5.00;91.00;;;;;;5022411;28;20040;-75
2021/10/16 06:45:27;;;;;;;9.85;3.88;;;5.10;91.00;;;;;;5048526;28;20036;-75
2021/10/16 06:47:53;;;;;;;7.13;4.07;;;5.10;91.00;;;;;;5048590;28;20033;-75
2021/10/16 06:50:19;;;;;;;5.95;3.70;;;5.20;91.30;;;;;;5034016;28;20477;-75
2021/10/16 06:52:45;;;;;;;7.22;3.85;;;5.30;91.10;;;;;;4998781;28;20040;-75
2021/10/16 06:55:10;;;;;;;7.43;4.35;;;5.30;90.90;;;;;;5028631;28;20029;-75
2021/10/16 06:57:36;;;;;;;11.38;5.13;;;5.40;90.90;;;;;;5028796;28;20049;-75
2021/10/16 07:00:03;;;;;;;10.98;6.30;;;5.40;91.00;;;;;;5028968;28;20125;-75
2021/10/16 07:02:29;;;;;;;10.15;6.05;;;5.50;91.10;;;;;;5010319;28;20079;-75
2021/10/16 07:04:55;;;;;;;12.10;7.07;;;5.60;91.10;;;;;;5017047;28;20485;-75
2021/10/16 07:07:20;;;;;;;15.23;6.72;;;5.70;91.20;;;;;;5030213;28;20123;-76
2021/10/16 07:09:46;;;;;;;11.32;6.63;;;5.80;91.20;;;;;;5050040;28;20033;-76
2021/10/16 07:12:12;;;;;;;13.60;6.28;;;5.90;91.20;;;;;;5031745;28;20037;-75
2021/10/16 07:14:37;;;;;;;13.63;7.07;;;6.00;91.20;;;;;;5016432;28;20032;-76
2021/10/16 07:17:03;;;;;;;13.02;6.53;;;6.10;91.20;;;;;;5032971;28;20041;-76
2021/10/16 07:19:29;;;;;;;18.05;8.25;;;6.20;91.20;;;;;;5036872;28;20427;-77
2021/10/16 07:21:54;;;;;;;13.93;7.50;;;6.40;91.20;;;;;;5027306;28;20033;-76
2021/10/16 07:24:20;;;;;;;15.50;7.45;;;6.50;91.40;;;;;;5006656;28;20503;-77
2021/10/16 07:26:45;;;;;;;19.77;9.10;;;6.50;91.10;;;;;;5049253;28;20033;-77
2021/10/16 07:29:11;;;;;;;20.45;8.75;;;6.70;91.10;;;;;;5012900;28;20029;-76
2021/10/16 07:31:38;;;;;;;19.48;8.80;;;6.70;91.10;;;;;;5049333;28;20178;-76
2021/10/16 07:34:04;;;;;;;24.05;9.00;;;6.80;91.10;;;;;;5046969;28;20527;-77
2021/10/16 07:36:38;;;;;;;20.92;10.13;;;6.90;91.10;;;;;;5011759;28;20043;-77
2021/10/16 07:39:08;;;;;;;18.85;8.63;;;7.00;91.00;;;;;;5056409;28;20042;-77
2021/10/16 07:41:35;;;;;;;21.88;8.52;;;7.00;91.10;;;;;;5022544;28;20100;-77
2021/10/16 07:44:03;;;;;;;22.85;8.73;;;7.00;91.10;;;;;;5011732;28;20087;-77
2021/10/16 07:46:28;;;;;;;21.10;8.70;;;7.10;91.20;;;;;;5037046;28;20478;-77
2021/10/16 07:48:54;;;;;;;18.65;8.02;;;7.10;91.20;;;;;;4998263;28;20066;-77
2021/10/16 07:51:20;;;;;;;17.77;8.13;;;7.10;91.20;;;;;;5011284;28;20147;-77
2021/10/16 07:53:45;;;;;;;23.98;8.43;;;7.20;91.20;;;;;;5011506;28;20167;-77
2021/10/16 07:56:11;;;;;;;27.73;10.35;;;7.30;91.30;;;;;;4994370;28;20069;-76
2021/10/16 07:58:39;;;;;;;24.75;9.70;;;7.40;91.20;;;;;;5027428;28;20545;-77
2021/10/16 08:01:08;;;;;;;25.20;10.00;;;7.40;91.20;;;;;;5008385;28;20025;-77
2021/10/16 08:03:37;;;;;;;19.90;8.95;;;7.50;91.30;;;;;;5048083;28;20291;-78
2021/10/16 08:06:03;;;;;;;30.75;11.20;;;7.60;91.40;;;;;;5032372;28;20029;-77
2021/10/16 08:08:29;;;;;;;24.95;10.63;;;7.70;91.40;;;;;;5030621;28;20029;-78
2021/10/16 08:10:55;;;;;;;25.83;9.70;;;7.90;91.30;;;;;;5009089;28;20022;-78
2021/10/16 08:13:22;;;;;;;25.85;12.10;;;7.90;91.20;;;;;;5021987;28;20108;-77
2021/10/16 08:15:48;;;;;;;25.98;10.88;;;8.10;91.10;;;;;;5005547;28;20030;-77
2021/10/16 08:18:14;;;;;;;26.70;11.55;;;8.20;91.10;;;;;;5028189;28;20040;-77
2021/10/16 08:20:40;;;;;;;19.90;9.20;;;8.30;91.10;;;;;;5032863;28;20009;-77
2021/10/16 08:23:07;;;;;;;19.50;9.27;;;8.30;91.00;;;;;;5018872;28;20021;-76
2021/10/16 08:25:33;;;;;;;26.05;9.90;;;8.50;90.90;;;;;;5031530;28;20025;-77
2021/10/16 08:27:59;;;;;;;27.60;9.00;;;8.60;90.90;;;;;;5045725;28;20041;-77
2021/10/16 08:30:25;;;;;;;20.40;9.07;;;8.90;90.80;;;;;;5031563;28;20029;-77
2021/10/16 08:32:51;;;;;;;22.48;9.13;;;9.10;90.80;;;;;;5024993;28;20105;-77
2021/10/16 08:35:17;;;;;;;29.13;9.85;;;9.30;90.60;;;;;;5028638;28;20037;-77
2021/10/16 08:37:43;;;;;;;30.33;9.65;;;9.50;90.80;;;;;;4995930;28;20038;-77
2021/10/16 08:40:09;;;;;;;23.40;7.93;;;9.70;90.50;;;;;;5007694;28;20082;-76
2021/10/16 08:42:35;;;;;;;19.73;8.15;;;9.90;90.30;;;;;;5030101;28;20026;-76
2021/10/16 08:45:02;;;;;;;23.20;9.02;;;10.00;90.20;;;;;;4992613;28;20029;-77
2021/10/16 08:47:38;;;;;;;16.67;7.20;;;10.20;90.10;;;;;;5022630;28;20030;-77
2021/10/16 08:50:07;;;;;;;21.85;9.50;;;10.30;90.00;;;;;;5046907;27;20060;-77
2021/10/16 08:52:33;;;;;;;23.08;8.55;;;10.50;89.70;;;;;;5032450;28;20030;-77
2021/10/16 08:54:59;;;;;;;25.10;9.18;;;10.60;89.40;;;;;;5020948;28;20091;-77
2021/10/16 08:57:36;;;;;;;26.92;8.82;;;10.70;89.10;;;;;;5052013;28;20080;-77
2021/10/16 09:00:44;;;;;;;19.27;8.52;;;10.90;88.90;;;;;;5033368;28;20025;-77
2021/10/16 09:03:18;;;;;;;19.07;8.20;;;11.00;88.60;;;;;;5039889;28;20018;-77
2021/10/16 09:06:10;;;;;;;16.70;7.05;;;11.10;88.20;;;;;;5014005;28;20026;-77
2021/10/16 09:08:51;;;;;;;22.33;7.00;;;11.30;88.20;;;;;;5010918;28;20038;-76
2021/10/16 09:11:22;;;;;;;18.27;6.05;;;11.40;87.50;;;;;;5054658;28;20108;-76
2021/10/16 09:13:59;;;;;;;18.52;6.22;;;11.50;87.00;;;;;;5022722;28;20041;-75
2021/10/16 09:16:26;;;;;;;20.58;6.03;;;11.60;86.60;;;;;;5032829;28;20034;-76
2021/10/16 09:19:18;;;;;;;15.60;6.30;;;11.70;86.30;;;;;;5013756;28;20041;-77
2021/10/16 09:21:49;;;;;;;22.00;6.25;;;11.80;86.20;;;;;;5029976;28;20053;-77
2021/10/16 09:24:25;;;;;;;24.80;6.03;;;11.80;85.80;;;;;;5070128;27;20053;-77
2021/10/16 09:26:57;;;;;;;25.05;6.05;;;11.90;85.50;;;;;;5025682;28;20398;-76
2021/10/16 09:29:24;;;;;;;16.77;5.55;;;12.00;85.20;;;;;;5014949;28;20038;-76
2021/10/16 09:31:57;;;;;;;19.50;5.80;;;12.00;85.00;;;;;;5028737;27;20029;-76
2021/10/16 09:34:29;;;;;;;17.77;5.85;;;12.10;85.40;;;;;;4993911;28;20038;-76
2021/10/16 09:37:06;;;;;;;17.30;5.93;;;12.20;84.50;;;;;;5019041;28;20053;-76
2021/10/16 09:39:34;;;;;;;23.13;6.20;;;12.30;84.20;;;;;;5028088;28;20060;-77
2021/10/16 09:42:00;;;;;;;21.63;5.88;;;12.40;84.10;;;;;;5030744;28;20018;-76
2021/10/16 09:44:34;;;;;;;15.50;5.20;;;12.50;83.90;;;;;;5012444;28;20029;-75
2021/10/16 09:47:15;;;;;;;15.27;5.18;;;12.60;83.40;;;;;;4988350;28;20026;-75
2021/10/16 09:49:48;;;;;;;24.02;5.28;;;12.70;83.20;;;;;;5029673;28;20033;-76
2021/10/16 09:52:18;;;;;;;20.58;5.45;;;12.80;83.10;;;;;;5029455;28;20120;-76
2021/10/16 09:54:45;;;;;;;;;;;12.90;83.00;;;;;;5030028;28;20497;-77
2021/10/16 09:57:13;;;;;;;18.98;4.55;;;12.90;82.80;;;;;;5030012;28;19916;-76
2021/10/16 09:59:40;;;;;;;16.63;4.80;;;13.00;83.00;;;;;;5030360;28;20455;-76
2021/10/16 10:02:08;;;;;;;15.25;3.90;;;13.10;82.60;;;;;;5030008;28;20049;-76
2021/10/16 10:04:40;;;;;;;19.67;4.53;;;13.20;82.30;;;;;;5012643;28;20116;-76
2021/10/16 10:07:08;;;;;;;12.25;4.10;;;13.30;81.80;;;;;;5047592;28;20094;-76
2021/10/16 10:09:34;;;;;;;17.17;4.40;;;13.40;81.60;;;;;;5043654;28;20251;-76
2021/10/16 10:12:00;;;;;;;14.77;4.15;;;13.50;81.50;;;;;;5040159;28;20026;-76
2021/10/16 10:14:27;;;;;;;23.48;4.35;;;13.60;81.30;;;;;;5043495;28;20025;-77
2021/10/16 10:16:56;;;;;;;12.93;3.80;;;13.60;80.80;;;;;;5036260;28;20116;-77
2021/10/16 10:19:22;;;;;;;15.70;4.05;;;13.60;80.40;;;;;;5016111;28;20025;-76
2021/10/16 10:21:48;;;;;;;13.07;3.80;;;13.70;80.00;;;;;;5043466;28;20054;-76
2021/10/16 10:24:15;;;;;;;14.48;3.83;;;13.70;79.90;;;;;;5030939;28;20025;-76
2021/10/16 10:26:45;;;;;;;14.98;3.83;;;13.80;79.60;;;;;;5028839;28;20029;-76
2021/10/16 10:29:14;;;;;;;12.13;3.20;;;13.90;79.10;;;;;;5048988;28;20021;-76
2021/10/16 10:31:45;;;;;;;16.00;3.53;;;14.00;78.20;;;;;;5030594;28;20029;-76
2021/10/16 10:34:20;;;;;;;16.50;3.63;;;14.10;77.50;;;;;;5026263;28;20029;-76
2021/10/16 10:36:48;;;;;;;11.65;2.63;;;14.20;76.80;;;;;;5020552;28;20050;-76
2021/10/16 10:39:35;;;;;;;10.45;2.15;;;14.30;76.20;;;;;;5011498;28;20120;-77
2021/10/16 10:42:08;;;;;;;9.95;1.98;;;14.40;73.90;;;;;;5028561;28;20343;-76
2021/10/16 10:44:48;;;;;;;12.32;2.47;;;14.40;73.30;;;;;;5029222;28;20034;-77
2021/10/16 10:47:23;;;;;;;10.98;2.40;;;14.40;72.30;;;;;;5029094;28;20389;-76
2021/10/16 10:49:50;;;;;;;7.45;1.58;;;14.40;71.40;;;;;;5029275;28;20434;-77
2021/10/16 10:52:16;;;;;;;16.58;2.40;;;14.40;71.20;;;;;;5011951;28;20041;-77
2021/10/16 10:55:17;;;;;;;16.13;2.70;;;14.50;70.70;;;;;;5029906;28;20105;-77
2021/10/16 10:57:47;;;;;;;8.45;2.17;;;14.50;69.80;;;;;;4987698;28;20036;-77
2021/10/16 11:00:14;;;;;;;11.85;1.88;;;14.60;69.70;;;;;;5004644;28;20048;-77
2021/10/16 11:02:40;;;;;;;6.63;1.60;;;14.70;69.20;;;;;;5011752;28;20022;-76
2021/10/16 11:05:34;;;;;;;11.77;2.10;;;14.70;67.10;;;;;;5011482;28;20942;-76
2021/10/16 11:08:18;;;;;;;11.00;2.08;;;14.50;65.00;;;;;;5029821;28;20057;-76
2021/10/16 11:10:43;;;;;;;9.02;1.90;;;14.30;64.80;;;;;;5011090;28;20409;-76
2021/10/16 11:13:18;;;;;;;9.00;1.83;;;14.10;66.90;;;;;;4995039;28;20030;-76
2021/10/16 11:15:54;;;;;;;9.88;1.88;;;14.10;67.30;;;;;;5028621;28;20076;-76
2021/10/16 11:18:20;;;;;;;10.13;1.65;;;14.30;67.40;;;;;;5010981;28;20037;-76
2021/10/16 11:20:46;;;;;;;7.68;1.73;;;14.50;66.90;;;;;;5010476;28;20443;-76
2021/10/16 11:23:20;;;;;;;9.60;1.63;;;14.60;65.90;;;;;;5010688;28;20112;-76
2021/10/16 11:26:02;;;;;;;11.00;1.90;;;14.80;63.40;;;;;;5027437;28;20025;-76
2021/10/16 11:28:30;;;;;;;12.05;1.77;;;14.80;61.60;;;;;;5032621;28;20025;-77
2021/10/16 11:30:57;;;;;;;7.45;1.75;;;14.60;62.90;;;;;;5028296;28;20025;-76
2021/10/16 11:33:28;;;;;;;9.52;2.03;;;14.40;63.60;;;;;;5028091;28;20544;-76
2021/10/16 11:35:56;;;;;;;9.10;1.70;;;14.30;63.90;;;;;;5009846;28;20068;-76
2021/10/16 11:38:33;;;;;;;8.80;1.90;;;14.20;64.50;;;;;;5009727;28;20048;-77
2021/10/16 11:41:02;;;;;;;8.95;1.92;;;14.20;64.60;;;;;;5009306;28;20044;-76
2021/10/16 11:43:35;;;;;;;7.80;1.77;;;14.10;65.70;;;;;;5009327;28;20037;-76
2021/10/16 11:46:06;;;;;;;10.00;1.70;;;14.10;65.80;;;;;;5015910;28;20038;-76
2021/10/16 11:48:32;;;;;;;6.97;1.63;;;14.00;67.00;;;;;;5013243;28;20093;-76
2021/10/16 11:51:00;;;;;;;8.75;2.03;;;14.20;67.30;;;;;;5013542;28;20021;-76
2021/10/16 11:53:31;;;;;;;7.72;1.75;;;14.30;66.60;;;;;;5031514;28;20120;-76
2021/10/16 11:56:04;;;;;;;8.90;1.70;;;14.50;66.10;;;;;;5012505;28;20120;-76
2021/10/16 11:58:30;;;;;;;12.32;1.98;;;14.50;63.80;;;;;;5029792;28;20437;-76
2021/10/16 12:00:58;;;;;;;9.15;1.83;;;14.50;63.10;;;;;;5012484;28;20025;-76
2021/10/16 12:03:32;;;;;;;8.13;1.85;;;14.50;62.20;;;;;;5030451;28;20033;-76
2021/10/16 12:06:04;;;;;;;9.40;1.60;;;14.50;62.30;;;;;;5031764;28;20017;-76
2021/10/16 12:08:32;;;;;;;7.10;1.67;;;14.40;62.10;;;;;;5031621;28;20029;-76
2021/10/16 12:11:03;;;;;;;6.88;1.90;;;14.50;63.00;;;;;;5031719;28;20028;-76
2021/10/16 12:13:41;;;;;;;8.60;1.55;;;14.50;61.10;;;;;;5013477;28;20026;-76
2021/10/16 12:16:19;;;;;;;6.75;1.50;;;14.60;62.30;;;;;;5014175;28;20123;-75
2021/10/16 12:19:05;;;;;;;8.65;1.77;;;14.60;62.70;;;;;;5034224;28;20026;-76
2021/10/16 12:21:36;;;;;;;7.22;1.38;;;14.80;61.70;;;;;;5010315;28;20029;-77
2021/10/16 12:24:10;;;;;;;7.78;1.73;;;15.00;61.60;;;;;;5023979;28;20074;-76
2021/10/16 12:26:38;;;;;;;7.53;1.58;;;15.10;60.10;;;;;;5015341;28;20487;-79
2021/10/16 12:29:06;;;;;;;8.38;1.92;;;15.20;59.90;;;;;;5032576;28;20037;-79
2021/10/16 12:31:59;;;;;;;6.85;1.80;;;15.30;58.70;;;;;;5032646;28;20056;-80
2021/10/16 12:34:28;;;;;;;8.80;1.63;;;15.20;58.60;;;;;;5012306;28;20045;-79
2021/10/16 12:36:58;;;;;;;7.07;1.98;;;15.20;59.40;;;;;;4995234;28;20049;-80
2021/10/16 12:39:33;;;;;;;7.90;1.60;;;15.20;59.30;;;;;;5012897;28;20038;-80
2021/10/16 12:42:08;;;;;;;7.35;1.90;;;15.30;58.90;;;;;;5012427;28;20026;-79
2021/10/16 12:44:36;;;;;;;7.32;1.70;;;15.40;59.00;;;;;;5012363;28;20029;-79
2021/10/16 12:47:15;;;;;;;5.97;1.50;;;15.50;59.80;;;;;;5020693;28;20154;-80
2021/10/16 12:49:45;;;;;;;12.13;2.30;;;15.60;59.00;;;;;;5014207;28;20343;-80